Time;durP1;ratioP1;P1;durP2;ratioP2;P2;SDS_P1;SDS_P2;PMS_P1;PMS_P2;Temp;Humidity;BMP_temperature;BMP_pressure;BME280_temperature;BME280_humidity;BME280_pressure;Samples;Min_cycle;Max_cycle;Signal;HPM_P1;HPM_P2
2023/06/08 00:00:41;;;;;;;6.80;6.13;;;;;;;14.43;100.00;96152.84;5008338;28;103688;-60
2023/06/08 00:03:08;;;;;;;6.40;5.80;;;;;;;14.44;100.00;96155.25;5007818;28;103944;-60
2023/06/08 00:05:43;;;;;;;5.90;5.43;;;;;;;14.54;100.00;96159.69;5008373;28;102127;-60
2023/06/08 00:08:10;;;;;;;6.20;5.70;;;;;;;14.58;100.00;96152.72;5008170;28;105567;-60
2023/06/08 00:10:37;;;;;;;6.13;5.53;;;;;;;14.61;100.00;96149.50;5007632;28;105426;-60
2023/06/08 00:13:05;;;;;;;6.27;5.77;;;;;;;14.52;100.00;96151.16;5008101;28;101945;-59
2023/06/08 00:15:33;;;;;;;6.37;5.77;;;;;;;14.39;100.00;96154.50;5008067;28;104052;-60
2023/06/08 00:18:00;;;;;;;6.23;5.73;;;;;;;14.31;100.00;96158.56;5007505;28;105301;-60
2023/06/08 00:20:28;;;;;;;6.60;5.90;;;;;;;14.33;100.00;96152.94;5011440;28;101956;-60
2023/06/08 00:22:56;;;;;;;6.57;6.07;;;;;;;14.42;100.00;96148.56;5009485;28;105305;-60
2023/06/08 00:25:23;;;;;;;6.13;5.63;;;;;;;14.33;100.00;96142.25;5013010;28;101890;-60
2023/06/08 00:27:50;;;;;;;5.87;5.37;;;;;;;14.31;100.00;96141.69;5011454;28;105733;-60
2023/06/08 00:30:18;;;;;;;6.53;6.00;;;;;;;14.28;100.00;96147.63;5010745;28;105133;-60
2023/06/08 00:32:47;;;;;;;6.43;5.90;;;;;;;14.16;100.00;96142.59;5011391;28;101786;-60
2023/06/08 00:35:14;;;;;;;6.33;5.73;;;;;;;14.08;100.00;96145.88;5011369;28;104994;-59
2023/06/08 00:37:41;;;;;;;6.00;5.50;;;;;;;13.92;100.00;96143.56;5010829;28;105560;-60
2023/06/08 00:40:09;;;;;;;6.20;5.60;;;;;;;14.04;100.00;96138.66;5011437;28;101892;-60
2023/06/08 00:42:36;;;;;;;6.10;5.60;;;;;;;14.13;100.00;96142.34;5013817;28;105025;-60
2023/06/08 00:45:03;;;;;;;7.30;6.60;;;;;;;14.16;100.00;96139.91;5010643;28;102015;-60
2023/06/08 00:47:32;;;;;;;7.27;6.57;;;;;;;14.25;100.00;96140.16;5011456;28;104859;-59
2023/06/08 00:50:02;;;;;;;6.77;6.27;;;;;;;14.15;100.00;96132.97;5010534;28;105490;-60
2023/06/08 00:52:30;;;;;;;6.67;6.10;;;;;;;14.14;100.00;96138.59;5011199;28;101901;-60
2023/06/08 00:54:58;;;;;;;7.10;6.47;;;;;;;14.17;100.00;96132.69;5010841;28;105154;-60
2023/06/08 00:57:28;;;;;;;7.33;6.63;;;;;;;14.12;100.00;96130.84;5010525;28;105742;-59
2023/06/08 00:59:57;;;;;;;6.87;6.27;;;;;;;14.06;100.00;96128.50;4994423;28;102206;-60
2023/06/08 01:02:25;;;;;;;6.80;6.20;;;;;;;13.97;100.00;96132.84;4994925;28;105405;-60
2023/06/08 01:04:56;;;;;;;6.27;5.77;;;;;;;13.96;100.00;96131.25;5015158;28;103086;-59
2023/06/08 01:07:33;;;;;;;6.80;6.10;;;;;;;13.91;100.00;96132.03;5010950;28;105212;-60
2023/06/08 01:10:06;;;;;;;6.90;6.20;;;;;;;13.84;100.00;96138.81;5010250;28;105683;-60
2023/06/08 01:12:40;;;;;;;8.03;7.33;;;;;;;13.89;100.00;96136.09;5011023;28;102204;-60
2023/06/08 01:15:14;;;;;;;7.47;6.87;;;;;;;13.77;100.00;96143.63;5010720;28;105154;-60
2023/06/08 01:17:44;;;;;;;9.40;7.57;;;;;;;13.68;100.00;96142.63;5010408;28;105096;-60
2023/06/08 01:20:32;;;;;;;8.40;7.60;;;;;;;13.76;100.00;96145.53;5012192;28;102115;-60
2023/06/08 01:23:25;;;;;;;7.37;6.67;;;;;;;13.87;100.00;96133.69;5010848;28;104832;-60
2023/06/08 01:25:57;;;;;;;8.07;7.00;;;;;;;13.89;100.00;96136.09;5010068;28;104733;-60
2023/06/08 01:28:28;;;;;;;7.47;6.77;;;;;;;13.94;100.00;96128.03;5013994;28;102086;-60
2023/06/08 01:30:56;;;;;;;7.40;6.80;;;;;;;13.85;100.00;96130.47;5010089;28;105216;-60
2023/06/08 01:33:28;;;;;;;6.90;6.30;;;;;;;13.74;100.00;96133.50;5011890;28;102195;-60
2023/06/08 01:36:05;;;;;;;6.80;6.20;;;;;;;13.80;100.00;96127.06;5010327;28;104947;-60
2023/06/08 01:38:40;;;;;;;7.37;6.77;;;;;;;13.80;100.00;96122.50;5010025;28;105706;-60
2023/06/08 01:41:14;;;;;;;6.67;6.10;;;;;;;13.39;100.00;96131.00;5010415;28;101994;-60
2023/06/08 01:43:45;;;;;;;7.83;7.13;;;;;;;13.53;100.00;96119.44;5010284;28;105001;-60
2023/06/08 01:46:13;;;;;;;8.20;6.73;;;;;;;13.55;100.00;96113.81;5009644;28;105233;-60
2023/06/08 01:48:41;;;;;;;7.33;6.63;;;;;;;13.51;100.00;96120.81;5010470;28;101839;-60
2023/06/08 01:51:11;;;;;;;6.77;6.17;;;;;;;13.40;100.00;96124.59;5012956;28;104882;-60
2023/06/08 01:53:38;;;;;;;7.07;6.47;;;;;;;13.22;100.00;96119.84;5011565;28;102274;-60
2023/06/08 01:56:06;;;;;;;7.70;7.00;;;;;;;13.37;100.00;96123.28;5010033;28;104914;-60
2023/06/08 01:58:35;;;;;;;7.13;6.53;;;;;;;13.09;100.00;96121.22;5009497;28;105430;-60
2023/06/08 02:01:02;;;;;;;7.13;6.53;;;;;;;13.17;100.00;96122.53;5010079;28;101911;-59
2023/06/08 02:03:29;;;;;;;8.37;7.27;;;;;;;13.19;100.00;96118.53;5010180;28;104948;-60
2023/06/08 02:05:56;;;;;;;8.03;7.23;;;;;;;13.16;100.00;96118.28;5009289;28;104972;-60
2023/06/08 02:08:23;;;;;;;9.63;7.27;;;;;;;13.16;100.00;96118.28;5011212;28;101851;-60
2023/06/08 02:10:49;;;;;;;8.00;7.30;;;;;;;13.06;100.00;96120.97;5012579;28;106725;-59
2023/06/08 02:13:16;;;;;;;7.70;7.00;;;;;;;13.10;100.00;96119.38;5009974;28;102046;-59
2023/06/08 02:15:45;;;;;;;7.90;7.17;;;;;;;13.07;100.00;96118.03;5009737;28;105428;-60
2023/06/08 02:18:13;;;;;;;7.63;7.03;;;;;;;13.09;100.00;96115.09;5010686;28;102504;-60
2023/06/08 02:20:40;;;;;;;7.30;6.67;;;;;;;13.11;100.00;96119.09;5011050;28;101822;-60
2023/06/08 02:23:07;;;;;;;7.77;7.17;;;;;;;13.00;100.00;96117.53;5010795;28;104305;-60
2023/06/08 02:25:35;;;;;;;8.60;7.80;;;;;;;12.97;100.00;96127.97;5008915;28;105460;-60
2023/06/08 02:28:02;;;;;;;8.30;7.50;;;;;;;12.93;100.00;96127.66;5009807;28;101855;-60
2023/06/08 02:30:29;;;;;;;7.40;6.80;;;;;;;12.87;100.00;96118.06;5009949;28;105111;-60
2023/06/08 02:32:57;;;;;;;7.70;7.00;;;;;;;12.85;100.00;96127.41;5014031;28;102553;-60
2023/06/08 02:35:24;;;;;;;7.77;6.97;;;;;;;12.80;100.00;96128.22;5009217;28;105614;-60
2023/06/08 02:37:51;;;;;;;7.77;7.00;;;;;;;12.73;100.00;96126.91;5008977;28;105267;-59
2023/06/08 02:40:18;;;;;;;8.47;7.77;;;;;;;12.67;100.00;96130.66;5009492;28;102001;-59
2023/06/08 02:42:45;;;;;;;7.47;6.77;;;;;;;12.54;100.00;96133.88;5009544;28;105388;-60
2023/06/08 02:45:15;;;;;;;8.43;7.63;;;;;;;12.47;100.00;96126.13;5007522;28;105352;-60
2023/06/08 02:47:43;;;;;;;8.10;7.40;;;;;;;12.60;100.00;96130.13;5009501;28;101857;-60
2023/06/08 02:50:11;;;;;;;8.80;8.00;;;;;;;12.73;100.00;96127.72;5009172;28;105391;-60
2023/06/08 02:52:39;;;;;;;8.30;7.53;;;;;;;12.80;100.00;96128.22;5008600;28;105017;-60
2023/06/08 02:55:06;;;;;;;7.77;7.07;;;;;;;12.81;100.00;96123.69;5012835;28;102076;-60
2023/06/08 02:57:33;;;;;;;7.67;7.00;;;;;;;12.83;100.00;96126.88;5008649;28;105187;-60
2023/06/08 03:00:07;;;;;;;7.97;7.27;;;;;;;12.90;100.00;96122.06;5009198;28;101888;-60
2023/06/08 03:02:46;;;;;;;8.37;7.67;;;;;;;12.86;100.00;96129.03;5009037;28;104502;-60
2023/06/08 03:05:14;;;;;;;8.33;7.47;;;;;;;12.67;100.00;96128.78;5008272;28;105221;-60
2023/06/08 03:07:41;;;;;;;8.47;7.67;;;;;;;12.77;100.00;96135.97;4992748;28;101988;-60
2023/06/08 03:10:10;;;;;;;8.30;7.60;;;;;;;12.76;100.00;96134.38;5009119;28;103944;-60
2023/06/08 03:12:37;;;;;;;8.53;7.70;;;;;;;12.81;100.00;96137.81;5008200;28;105500;-60
2023/06/08 03:15:06;;;;;;;8.73;7.93;;;;;;;12.87;100.00;96134.06;5008929;28;101971;-60
2023/06/08 03:17:34;;;;;;;8.37;7.67;;;;;;;12.91;100.00;96137.81;5012004;28;104439;-60
2023/06/08 03:20:05;;;;;;;8.80;8.00;;;;;;;12.92;100.00;96143.97;5008729;28;101973;-60
2023/06/08 03:22:37;;;;;;;8.23;7.53;;;;;;;12.93;100.00;96146.34;5008943;28;104810;-60
2023/06/08 03:25:07;;;;;;;8.13;7.47;;;;;;;12.93;100.00;96143.66;5007929;28;105050;-60
2023/06/08 03:27:36;;;;;;;7.90;7.07;;;;;;;12.93;100.00;96142.88;5008830;28;102232;-60
2023/06/08 03:30:10;;;;;;;7.07;6.57;;;;;;;12.91;100.00;96140.47;5008819;28;105029;-60
2023/06/08 03:32:48;;;;;;;7.70;6.97;;;;;;;12.95;100.00;96146.06;5008306;28;104228;-59
2023/06/08 03:35:19;;;;;;;7.83;7.03;;;;;;;13.00;100.00;96154.09;5008319;28;101939;-60
2023/06/08 03:37:51;;;;;;;10.63;7.17;;;;;;;13.04;100.00;96149.81;5008733;28;104996;-59
2023/06/08 03:40:18;;;;;;;8.07;7.37;;;;;;;13.11;100.00;96145.00;5011344;28;105533;-60
2023/06/08 03:42:46;;;;;;;9.63;7.80;;;;;;;13.17;100.00;96143.91;5008740;28;105301;-60
2023/06/08 03:45:14;;;;;;;7.73;7.03;;;;;;;13.15;100.00;96143.38;5006992;28;104001;-59
2023/06/08 03:47:41;;;;;;;7.40;6.70;;;;;;;13.19;100.00;96147.91;5008623;28;101806;-60
2023/06/08 03:50:11;;;;;;;7.00;6.40;;;;;;;13.18;100.00;96146.31;5008463;28;104997;-60
2023/06/08 03:52:39;;;;;;;7.77;7.07;;;;;;;13.16;100.00;96142.31;5007942;28;105676;-60
2023/06/08 03:55:11;;;;;;;7.60;6.90;;;;;;;13.25;100.00;96143.34;5008555;28;102006;-60
2023/06/08 03:57:38;;;;;;;7.27;6.67;;;;;;;13.29;100.00;96137.19;5009985;28;105167;-60
2023/06/08 04:00:09;;;;;;;7.57;6.87;;;;;;;13.32;100.00;96133.16;5011152;28;104869;-60
2023/06/08 04:02:41;;;;;;;8.10;7.40;;;;;;;13.36;100.00;96142.25;5013871;28;101697;-60
2023/06/08 04:05:14;;;;;;;8.93;8.07;;;;;;;13.28;100.00;96145.47;5011218;28;105022;-60
2023/06/08 04:07:41;;;;;;;8.20;7.50;;;;;;;13.33;100.00;96148.13;5013492;28;101773;-60
2023/06/08 04:10:12;;;;;;;8.53;7.67;;;;;;;13.37;100.00;96151.84;5011641;28;104853;-60
2023/06/08 04:12:39;;;;;;;7.53;6.83;;;;;;;13.40;100.00;96149.44;5012758;28;102457;-60
2023/06/08 04:15:08;;;;;;;8.07;7.37;;;;;;;13.39;100.00;96155.84;5011739;28;101905;-59
2023/06/08 04:17:40;;;;;;;8.27;7.67;;;;;;;13.44;100.00;96153.16;5011645;28;105250;-60
2023/06/08 04:20:08;;;;;;;8.00;7.30;;;;;;;13.50;100.00;96146.72;5010744;28;104843;-60
2023/06/08 04:22:36;;;;;;;7.83;7.13;;;;;;;13.58;100.00;96153.38;5015198;28;101995;-60
2023/06/08 04:25:03;;;;;;;8.47;7.77;;;;;;;13.60;100.00;96153.88;5011120;28;105156;-60
2023/06/08 04:27:34;;;;;;;8.30;7.60;;;;;;;13.61;100.00;96150.13;5011407;28;101834;-60
2023/06/08 04:30:01;;;;;;;7.57;6.87;;;;;;;13.61;100.00;96145.59;5011609;28;104919;-60
2023/06/08 04:32:31;;;;;;;8.57;6.70;;;;;;;13.60;100.00;96153.88;5010575;28;103840;-60
2023/06/08 04:34:58;;;;;;;7.97;7.17;;;;;;;13.64;100.00;96154.94;5011267;28;101982;-60
2023/06/08 04:37:26;;;;;;;7.77;7.07;;;;;;;13.54;100.00;96161.13;5011471;28;104626;-60
2023/06/08 04:39:56;;;;;;;8.27;7.57;;;;;;;13.59;100.00;96152.28;5010865;28;105404;-60
2023/06/08 04:42:24;;;;;;;7.47;6.87;;;;;;;13.66;100.00;96158.94;5011328;28;101872;-60
2023/06/08 04:44:53;;;;;;;7.73;7.13;;;;;;;13.78;100.00;96158.59;5013847;28;104519;-60
2023/06/08 04:47:20;;;;;;;8.67;7.77;;;;;;;13.83;100.00;96158.56;5011231;28;101939;-60
2023/06/08 04:49:47;;;;;;;7.90;7.20;;;;;;;13.84;100.00;96158.28;5011105;28;103610;-60
2023/06/08 04:52:15;;;;;;;7.80;7.17;;;;;;;13.85;100.00;96161.78;5010296;28;105496;-60
2023/06/08 04:54:42;;;;;;;7.10;6.50;;;;;;;13.90;100.00;96159.09;5011227;28;102002;-60
2023/06/08 04:57:10;;;;;;;7.90;7.10;;;;;;;13.96;100.00;96160.66;5011148;28;105339;-60
2023/06/08 04:59:37;;;;;;;7.33;6.73;;;;;;;13.99;100.00;96163.56;5010549;28;105350;-60
2023/06/08 05:02:07;;;;;;;8.00;7.30;;;;;;;13.94;100.00;96170.78;5012316;28;102014;-60
2023/06/08 05:04:36;;;;;;;7.80;7.10;;;;;;;14.16;100.00;96173.88;5010891;28;104897;-60
2023/06/08 05:07:03;;;;;;;7.77;7.07;;;;;;;14.40;100.00;96170.25;5013744;28;105143;-60
2023/06/08 05:09:31;;;;;;;8.43;7.73;;;;;;;14.64;100.00;96164.97;5010409;28;104191;-60
2023/06/08 05:11:58;;;;;;;8.57;7.87;;;;;;;14.89;100.00;96165.53;5011741;28;102617;-60
2023/06/08 05:14:25;;;;;;;8.70;8.00;;;;;;;15.19;100.00;96164.44;5012112;28;101838;-60
2023/06/08 05:16:52;;;;;;;9.63;8.83;;;;;;;15.32;100.00;96153.84;5012140;28;102289;-60
2023/06/08 05:19:20;;;;;;;10.20;9.30;;;;;;;15.59;100.00;96155.97;5010110;28;105496;-60
2023/06/08 05:21:47;;;;;;;8.20;7.50;;;;;;;15.92;100.00;96153.09;5010871;28;102136;-60
2023/06/08 05:24:14;;;;;;;8.20;7.50;;;;;;;16.12;100.00;96144.78;5010707;28;105095;-60
2023/06/08 05:26:41;;;;;;;8.60;7.90;;;;;;;15.96;100.00;96150.66;5009829;28;105542;-60
2023/06/08 05:29:09;;;;;;;8.20;7.50;;;;;;;15.99;100.00;96155.44;5013928;28;102186;-59
2023/06/08 05:31:36;;;;;;;8.67;7.87;;;;;;;15.91;100.00;96158.78;5010012;28;105323;-60
2023/06/08 05:34:02;;;;;;;8.80;8.10;;;;;;;15.74;100.00;96158.44;5010595;28;101860;-60
2023/06/08 05:36:31;;;;;;;9.57;8.33;;;;;;;15.91;100.00;96159.56;5011732;28;102358;-60
2023/06/08 05:39:02;;;;;;;9.20;8.37;;;;;;;16.20;100.00;96162.13;5009567;28;105214;-60
2023/06/08 05:41:29;;;;;;;7.97;7.27;;;;;;;16.28;100.00;96159.56;5010444;28;101953;-60
2023/06/08 05:43:56;;;;;;;8.20;7.50;;;;;;;16.32;100.00;96157.91;5011480;28;102404;-60
2023/06/08 05:46:23;;;;;;;8.77;7.90;;;;;;;16.31;100.00;96155.50;5011165;28;102589;-60
2023/06/08 05:48:50;;;;;;;8.60;7.73;;;;;;;16.15;100.00;96154.94;5011818;28;101694;-60
2023/06/08 05:51:17;;;;;;;9.10;8.20;;;;;;;16.07;100.00;96163.63;5014347;28;102456;-60
2023/06/08 05:53:46;;;;;;;8.77;8.00;;;;;;;15.93;100.00;96161.97;5011730;28;101818;-60
2023/06/08 05:56:13;;;;;;;9.03;8.13;;;;;;;16.09;100.00;96156.09;5010062;28;103547;-60
2023/06/08 05:58:40;;;;;;;8.87;8.03;;;;;;;16.32;100.00;96155.22;5009658;28;105300;-59
2023/06/08 06:01:09;;;;;;;9.53;8.63;;;;;;;16.28;100.00;96150.72;5009990;28;102141;-60
2023/06/08 06:03:36;;;;;;;11.13;9.23;;;;;;;16.06;100.00;96145.13;5011468;28;102751;-60
2023/06/08 06:06:03;;;;;;;10.40;9.50;;;;;;;16.44;100.00;96146.72;5010752;28;103102;-60
2023/06/08 06:08:30;;;;;;;9.57;8.67;;;;;;;16.69;100.00;96151.72;5010128;28;102172;-60
2023/06/08 06:10:59;;;;;;;9.97;9.07;;;;;;;16.86;100.00;96146.56;5010027;28;105372;-60
2023/06/08 06:13:27;;;;;;;9.23;8.53;;;;;;;17.04;100.00;96143.81;5011942;28;101947;-60
2023/06/08 06:15:54;;;;;;;12.17;9.30;;;;;;;17.15;100.00;96149.78;5009817;28;104857;-60
2023/06/08 06:18:21;;;;;;;10.03;9.10;;;;;;;17.38;100.00;96141.59;5010685;28;102520;-60
2023/06/08 06:20:50;;;;;;;9.90;9.00;;;;;;;17.28;100.00;96147.13;5009925;28;102125;-60
2023/06/08 06:23:17;;;;;;;9.83;9.03;;;;;;;17.27;100.00;96140.16;5011209;28;102342;-61
2023/06/08 06:25:45;;;;;;;11.37;9.37;;;;;;;17.53;100.00;96143.16;5009171;28;105358;-60
2023/06/08 06:28:14;;;;;;;9.53;8.70;;;;;;;17.59;100.00;96148.16;5009543;28;101714;-60
2023/06/08 06:30:40;;;;;;;9.87;9.07;;;;;;;17.90;100.00;96149.13;5003428;28;104064;-60
2023/06/08 06:33:07;;;;;;;9.13;8.23;;;;;;;18.17;100.00;96145.56;4992489;28;105464;-60
2023/06/08 06:35:35;;;;;;;8.70;7.90;;;;;;;18.35;100.00;96144.63;4989354;28;105111;-60
2023/06/08 06:38:02;;;;;;;9.80;8.27;;;;;;;18.27;100.00;96142.66;4988948;28;105312;-60
2023/06/08 06:40:29;;;;;;;8.50;7.70;;;;;;;18.45;100.00;96142.50;4989711;28;102038;-60
2023/06/08 06:42:55;;;;;;;7.90;7.10;;;;;;;18.79;100.00;96142.72;4991099;28;103018;-60
2023/06/08 06:45:27;;;;;;;7.27;6.67;;;;;;;18.98;100.00;96142.53;4987553;28;103758;-60
2023/06/08 06:47:54;;;;;;;7.50;6.73;;;;;;;18.99;100.00;96149.50;4989598;28;102282;-60
2023/06/08 06:50:20;;;;;;;7.33;6.70;;;;;;;19.11;100.00;96147.03;4989452;28;105327;-60
2023/06/08 06:52:47;;;;;;;7.67;6.90;;;;;;;19.07;100.00;96146.09;4988851;28;105310;-60
2023/06/08 06:55:14;;;;;;;8.30;7.53;;;;;;;19.46;100.00;96148.81;4992791;28;102033;-60
2023/06/08 06:57:42;;;;;;;7.63;6.90;;;;;;;19.19;100.00;96143.59;4988560;28;105573;-60
2023/06/08 07:00:10;;;;;;;7.40;6.70;;;;;;;19.08;100.00;96148.44;4989042;28;102073;-60
2023/06/08 07:02:38;;;;;;;6.80;6.30;;;;;;;19.02;100.00;96148.91;4989052;28;105589;-60
2023/06/08 07:05:07;;;;;;;6.73;6.13;;;;;;;18.71;100.00;96148.88;4988543;28;104230;-60
2023/06/08 07:07:34;;;;;;;6.63;5.97;;;;;;;18.91;100.00;96153.75;4972730;28;102345;-60
2023/06/08 07:10:01;;;;;;;10.20;6.30;;;;;;;19.10;100.00;96156.22;4989305;28;104779;-60
2023/06/08 07:12:29;;;;;;;6.93;6.20;;;;;;;19.12;100.00;96149.44;4988077;28;105861;-60
2023/06/08 07:14:56;;;;;;;7.70;6.90;;;;;;;19.19;100.00;96151.69;4989131;28;102001;-60
2023/06/08 07:17:22;;;;;;;6.60;5.93;;;;;;;19.49;100.00;96142.78;4991864;28;105104;-60
2023/06/08 07:19:52;;;;;;;7.43;6.70;;;;;;;20.00;100.00;96146.41;4988804;28;101972;-60
2023/06/08 07:22:19;;;;;;;7.00;6.40;;;;;;;19.80;100.00;96148.91;4988797;28;105027;-60
2023/06/08 07:24:46;;;;;;;7.27;6.60;;;;;;;19.68;100.00;96148.72;4987824;28;105791;-60
2023/06/08 07:27:13;;;;;;;7.13;6.47;;;;;;;20.09;100.00;96143.75;4988867;28;102130;-60
2023/06/08 07:29:40;;;;;;;7.77;6.97;;;;;;;20.11;100.00;96147.72;4988848;28;104157;-60
2023/06/08 07:32:08;;;;;;;6.63;6.03;;;;;;;20.43;100.00;96144.56;4988189;28;103729;-60
2023/06/08 07:34:35;;;;;;;7.40;6.70;;;;;;;20.07;100.00;96143.28;4988707;28;102044;-60
2023/06/08 07:37:05;;;;;;;7.37;6.67;;;;;;;19.96;100.00;96134.69;4988735;28;104073;-60
2023/06/08 07:39:32;;;;;;;7.50;6.80;;;;;;;20.32;100.00;96142.53;4991399;28;104357;-60
2023/06/08 07:41:59;;;;;;;6.60;6.00;;;;;;;20.95;100.00;96142.66;4988391;28;103574;-60
2023/06/08 07:44:25;;;;;;;7.23;6.53;;;;;;;20.99;100.00;96141.66;4987406;28;104076;-60
2023/06/08 07:46:52;;;;;;;6.80;6.20;;;;;;;20.50;100.00;96144.09;4988728;28;101981;-60
2023/06/08 07:49:19;;;;;;;6.90;6.20;;;;;;;20.77;100.00;96141.06;4988561;28;105435;-60
2023/06/08 07:51:46;;;;;;;7.33;6.63;;;;;;;20.44;100.00;96132.66;4987915;28;105342;-60
2023/06/08 07:54:19;;;;;;;7.30;6.60;;;;;;;20.80;100.00;96135.00;4988273;28;101880;-60
2023/06/08 07:56:46;;;;;;;7.30;6.60;;;;;;;20.89;100.00;96138.53;4988406;28;105233;-60
2023/06/08 07:59:12;;;;;;;7.50;6.47;;;;;;;20.92;100.00;96137.91;4987661;28;105598;-60
2023/06/08 08:01:40;;;;;;;8.00;7.20;;;;;;;20.85;100.00;96134.84;4991951;28;101980;-60
2023/06/08 08:04:08;;;;;;;7.47;6.77;;;;;;;20.86;100.00;96129.13;4987912;28;104304;-60
2023/06/08 08:06:35;;;;;;;7.10;6.40;;;;;;;21.26;100.00;96133.16;4988405;28;102067;-60
2023/06/08 08:09:03;;;;;;;7.10;6.40;;;;;;;21.75;100.00;96132.50;4988245;28;104858;-60
2023/06/08 08:11:31;;;;;;;7.60;6.90;;;;;;;21.47;100.00;96127.84;4989206;28;102561;-60
2023/06/08 08:13:58;;;;;;;7.30;6.70;;;;;;;21.66;100.00;96118.19;4988390;28;102015;-60
2023/06/08 08:16:26;;;;;;;8.17;7.20;;;;;;;21.49;100.00;96120.19;4988188;28;104029;-60
2023/06/08 08:18:53;;;;;;;7.30;6.70;;;;;;;21.48;100.00;96118.59;4987324;28;104115;-60
2023/06/08 08:21:20;;;;;;;6.90;6.30;;;;;;;21.87;100.00;96112.84;4991470;28;101934;-60
2023/06/08 08:23:48;;;;;;;8.27;7.37;;;;;;;22.23;100.00;96108.44;4987617;28;103703;-60
2023/06/08 08:26:15;;;;;;;7.97;7.20;;;;;;;22.00;100.00;96111.78;4988184;28;101990;-60
2023/06/08 08:28:44;;;;;;;7.50;6.80;;;;;;;21.95;100.00;96112.00;4987976;28;105700;-60
2023/06/08 08:31:11;;;;;;;8.30;7.50;;;;;;;21.25;100.00;96115.34;4987466;28;105873;-60
2023/06/08 08:33:38;;;;;;;7.73;6.77;;;;;;;21.81;100.00;96116.88;4988075;28;101858;-60
2023/06/08 08:36:06;;;;;;;6.97;6.27;;;;;;;22.43;100.00;96123.09;4987965;28;103575;-60
2023/06/08 08:38:33;;;;;;;8.00;7.20;;;;;;;22.61;100.00;96121.88;4987271;28;105508;-60
2023/06/08 08:41:04;;;;;;;6.50;5.90;;;;;;;23.16;100.00;96119.56;4987641;28;101959;-60
2023/06/08 08:43:38;;;;;;;7.57;6.97;;;;;;;23.51;100.00;96116.13;4991836;28;105169;-60
2023/06/08 08:46:08;;;;;;;6.70;6.00;;;;;;;23.77;100.00;96113.09;4992433;28;101802;-60
2023/06/08 08:48:42;;;;;;;6.40;5.33;;;;;;;23.87;100.00;96109.91;4991106;28;103557;-60
2023/06/08 08:51:13;;;;;;;6.97;5.70;;;;;;;24.02;99.44;96112.75;4990643;28;103124;-60
2023/06/08 08:53:41;;;;;;;5.50;5.10;;;;;;;23.97;98.74;96106.75;4990786;28;102250;-60
2023/06/08 08:56:09;;;;;;;5.90;5.40;;;;;;;23.71;97.95;96103.59;4991185;28;104865;-60
2023/06/08 08:58:36;;;;;;;6.77;6.10;;;;;;;23.86;90.99;96105.63;4990473;28;105659;-60
2023/06/08 09:01:08;;;;;;;6.10;5.60;;;;;;;23.82;100.00;96110.13;4991258;28;101949;-60
2023/06/08 09:03:35;;;;;;;6.10;5.60;;;;;;;24.23;97.52;96099.81;4991115;28;104169;-60
2023/06/08 09:06:02;;;;;;;5.90;5.20;;;;;;;23.96;84.14;96099.72;4993575;28;105384;-60
2023/06/08 09:08:29;;;;;;;4.40;4.10;;;;;;;24.60;91.20;96103.22;4990904;28;105287;-60
2023/06/08 09:11:05;;;;;;;5.90;5.40;;;;;;;24.73;78.09;96100.09;4990364;28;105310;-60
2023/06/08 09:13:32;;;;;;;5.20;4.80;;;;;;;24.54;84.36;96096.41;4990909;28;101882;-60
2023/06/08 09:16:10;;;;;;;6.07;4.70;;;;;;;24.54;96.17;96101.84;4990947;28;105254;-60
2023/06/08 09:18:37;;;;;;;4.10;3.70;;;;;;;25.32;81.53;96098.22;4990051;28;103916;-60
2023/06/08 09:21:21;;;;;;;4.13;3.83;;;;;;;25.77;75.87;96093.09;4990807;28;102004;-60
2023/06/08 09:24:04;;;;;;;4.37;3.97;;;;;;;25.80;72.41;96094.31;4990576;28;104892;-60
2023/06/08 09:26:31;;;;;;;4.90;4.13;;;;;;;25.96;72.72;96086.94;4973580;28;106004;-60
2023/06/08 09:29:00;;;;;;;4.90;4.07;;;;;;;26.20;76.83;96086.72;4993963;28;101940;-60
2023/06/08 09:31:29;;;;;;;4.07;3.70;;;;;;;26.27;72.04;96082.16;4990174;28;105295;-60
2023/06/08 09:34:06;;;;;;;4.00;3.70;;;;;;;26.05;71.41;96076.63;4990375;28;101888;-60
2023/06/08 09:36:36;;;;;;;3.77;3.47;;;;;;;26.31;71.73;96076.81;4992091;28;102802;-60
2023/06/08 09:39:05;;;;;;;4.00;3.60;;;;;;;26.52;70.46;96077.22;4991317;28;102782;-60
2023/06/08 09:41:33;;;;;;;3.87;3.53;;;;;;;26.66;71.12;96072.09;4991838;28;101795;-60
2023/06/08 09:44:01;;;;;;;3.97;3.57;;;;;;;26.75;64.18;96068.00;4990981;28;103390;-61
2023/06/08 09:46:38;;;;;;;3.50;3.30;;;;;;;27.07;67.83;96061.19;4991536;28;102545;-60
2023/06/08 09:49:07;;;;;;;4.07;3.63;;;;;;;27.30;59.63;96063.97;4991849;28;101894;-60
2023/06/08 09:51:36;;;;;;;4.03;3.73;;;;;;;27.40;55.17;96057.91;4993110;28;103400;-60
2023/06/08 09:54:04;;;;;;;3.93;3.40;;;;;;;27.45;53.00;96061.09;4990179;28;101950;-60
2023/06/08 09:56:31;;;;;;;3.70;3.40;;;;;;;27.77;51.65;96061.59;4990231;28;105576;-60
2023/06/08 09:59:03;;;;;;;3.50;3.20;;;;;;;27.67;51.99;96062.25;4989428;28;105358;-60
2023/06/08 10:01:38;;;;;;;3.73;3.43;;;;;;;27.85;51.04;96052.38;4990080;28;101765;-60
2023/06/08 10:04:15;;;;;;;3.30;3.10;;;;;;;27.81;51.04;96055.06;4991848;28;102574;-60
2023/06/08 10:06:45;;;;;;;3.80;3.50;;;;;;;28.02;46.96;96047.19;4990888;28;102665;-60
2023/06/08 10:09:16;;;;;;;4.43;3.30;;;;;;;27.93;48.49;96052.13;4991509;28;101667;-60
2023/06/08 10:11:44;;;;;;;3.50;3.20;;;;;;;28.12;50.85;96043.00;4991698;28;102581;-60
2023/06/08 10:14:13;;;;;;;4.03;3.58;;;;;;;28.28;49.86;96051.81;4993947;28;102811;-60
2023/06/08 10:16:42;;;;;;;4.67;3.73;;;;;;;28.14;47.99;96048.88;4989848;28;103710;-60
2023/06/08 10:19:11;;;;;;;3.40;3.20;;;;;;;28.18;48.90;96045.03;4989122;28;105289;-60
2023/06/08 10:21:38;;;;;;;4.00;3.70;;;;;;;28.29;48.10;96039.72;4989699;28;102054;-60
2023/06/08 10:24:07;;;;;;;3.40;3.20;;;;;;;28.40;45.81;96035.97;4990054;28;104625;-60
2023/06/08 10:26:33;;;;;;;5.10;3.50;;;;;;;28.78;45.05;96034.88;4988960;28;105025;-60
2023/06/08 10:29:08;;;;;;;3.58;3.28;;;;;;;28.90;46.10;96037.34;4989698;28;101963;-60
2023/06/08 10:31:39;;;;;;;4.05;3.30;;;;;;;29.25;44.08;96030.28;4989734;28;103727;-60
2023/06/08 10:34:09;;;;;;;3.88;3.42;;;;;;;29.08;43.29;96025.44;4994135;28;102600;-60
2023/06/08 10:36:39;;;;;;;3.63;3.20;;;;;;;29.57;41.82;96030.56;4989372;28;103579;-60
2023/06/08 10:39:10;;;;;;;3.22;3.03;;;;;;;29.62;39.62;96021.97;4989029;28;105121;-60
2023/06/08 10:41:44;;;;;;;3.40;3.20;;;;;;;29.90;39.66;96016.69;4990987;28;102175;-60
2023/06/08 10:44:25;;;;;;;3.50;3.20;;;;;;;29.12;37.16;96006.28;4989624;28;102350;-61
2023/06/08 10:46:59;;;;;;;3.58;3.20;;;;;;;29.25;42.94;96007.59;4988296;28;103956;-61
2023/06/08 10:49:32;;;;;;;3.42;3.15;;;;;;;29.30;43.78;95997.06;4990402;28;101774;-60
2023/06/08 10:52:00;;;;;;;3.75;3.38;;;;;;;29.30;43.05;96007.22;4990945;28;102346;-60
2023/06/08 10:54:30;;;;;;;4.50;3.25;;;;;;;29.26;40.30;96003.69;4990296;28;104899;-60
2023/06/08 10:57:00;;;;;;;3.65;3.35;;;;;;;29.53;39.36;96002.31;4993609;28;101909;-60
2023/06/08 10:59:34;;;;;;;3.40;3.05;;;;;;;29.81;35.67;96003.31;4989847;28;102585;-61
2023/06/08 11:02:03;;;;;;;3.38;3.00;;;;;;;29.47;37.10;96010.09;4990857;28;101718;-60
2023/06/08 11:04:33;;;;;;;3.80;3.50;;;;;;;28.36;36.66;95994.09;4990506;28;102491;-60
2023/06/08 11:07:02;;;;;;;4.97;3.38;;;;;;;29.05;40.28;96001.50;4987928;28;106312;-61
2023/06/08 11:09:31;;;;;;;3.60;3.30;;;;;;;29.69;40.11;95994.66;4988986;28;101864;-60
2023/06/08 11:11:58;;;;;;;3.47;3.28;;;;;;;29.40;37.68;96004.56;4989194;28;103570;-61
2023/06/08 11:14:25;;;;;;;3.95;3.28;;;;;;;29.83;39.01;96009.22;4988427;28;104096;-60
2023/06/08 11:16:53;;;;;;;3.65;3.35;;;;;;;29.63;37.20;96009.84;4990218;28;101806;-60
2023/06/08 11:19:20;;;;;;;3.83;3.30;;;;;;;29.87;38.29;96007.25;4992939;28;102421;-60
2023/06/08 11:21:53;;;;;;;4.55;3.20;;;;;;;29.93;39.17;96007.72;4990387;28;102009;-60
2023/06/08 11:24:20;;;;;;;3.60;3.30;;;;;;;30.44;38.34;96002.88;4990232;28;103849;-60
2023/06/08 11:26:48;;;;;;;3.55;3.35;;;;;;;30.53;37.44;95995.06;4987989;28;104016;-60